createdAt,value
2018-09-12T00:01:37.678Z,98653.64
2018-09-12T00:04:09.332Z,98650.31
2018-09-12T00:06:40.794Z,98653.97
2018-09-12T00:09:13.252Z,98657.30
2018-09-12T00:11:45.056Z,98655.97
2018-09-12T00:14:16.821Z,98660.63
2018-09-12T00:16:48.447Z,98664.28
2018-09-12T00:19:20.196Z,98656.30
2018-09-12T00:21:51.796Z,98668.93
2018-09-12T00:24:23.320Z,98664.80
2018-09-12T00:26:55.203Z,98667.62
2018-09-12T00:29:28.371Z,98670.28
2018-09-12T00:32:00.257Z,98679.73
2018-09-12T00:34:31.663Z,98677.27
2018-09-12T00:37:03.083Z,98683.23
2018-09-12T00:39:34.581Z,98682.25
2018-09-12T00:42:06.458Z,98685.05
2018-09-12T00:44:38.368Z,98695.55
2018-09-12T00:47:09.954Z,98695.39
2018-09-12T00:49:41.602Z,98693.05
2018-09-12T00:52:13.449Z,98700.53
2018-09-12T00:54:45.177Z,98698.55
2018-09-12T00:57:16.913Z,98698.36
2018-09-12T00:59:48.598Z,98700.53
2018-09-12T01:02:20.199Z,98698.86
2018-09-12T01:04:52.781Z,98703.69
2018-09-12T01:07:24.756Z,98704.52
2018-09-12T01:09:56.550Z,98703.19
2018-09-12T01:12:28.349Z,98710.00
2018-09-12T01:14:59.752Z,98711.98
2018-09-12T01:17:31.417Z,98712.32
2018-09-12T01:20:02.964Z,98718.47
2018-09-12T01:22:34.679Z,98719.30
2018-09-12T01:25:06.473Z,98718.63
2018-09-12T01:27:38.296Z,98726.95
2018-09-12T01:30:15.266Z,98721.48
2018-09-12T01:32:46.927Z,98729.13
2018-09-12T01:35:18.624Z,98724.14
2018-09-12T01:37:50.488Z,98726.13
2018-09-12T01:40:22.124Z,98731.78
2018-09-12T01:42:53.967Z,98733.95
2018-09-12T01:45:25.539Z,98733.95
2018-09-12T01:47:57.223Z,98735.77
2018-09-12T01:50:28.967Z,98739.92
2018-09-12T01:53:00.871Z,98742.24
2018-09-12T01:55:32.471Z,98744.06
2018-09-12T01:58:04.165Z,98749.39
2018-09-12T02:00:40.937Z,98751.05
2018-09-12T02:03:12.597Z,98748.05
2018-09-12T02:05:44.466Z,98757.20
2018-09-12T02:08:16.196Z,98762.52
2018-09-12T02:10:47.654Z,98760.86
2018-09-12T02:13:19.040Z,98762.34
2018-09-12T02:15:51.041Z,98767.33
2018-09-12T02:18:22.769Z,98763.03
2018-09-12T02:20:54.424Z,98765.02
2018-09-12T02:23:25.947Z,98771.16
2018-09-12T02:25:57.672Z,98776.33
2018-09-12T02:28:29.398Z,98780.31
2018-09-12T02:31:01.711Z,98778.64
2018-09-12T02:33:33.898Z,98784.80
2018-09-12T02:36:10.249Z,98783.13
2018-09-12T02:38:41.904Z,98782.63
2018-09-12T02:41:13.558Z,98782.61
2018-09-12T02:43:45.330Z,98783.28
2018-09-12T02:46:17.240Z,98788.11
2018-09-12T02:48:49.005Z,98786.28
2018-09-12T02:51:20.721Z,98796.92
2018-09-12T02:53:52.774Z,98796.92
2018-09-12T02:56:24.894Z,98798.59
2018-09-12T03:04:09.856Z,98800.57
2018-09-12T03:06:41.726Z,98806.57
2018-09-12T03:09:13.603Z,98801.25
2018-09-12T03:11:45.289Z,98807.41
2018-09-12T03:14:16.930Z,98810.56
2018-09-12T03:16:48.735Z,98811.55
2018-09-12T03:19:20.784Z,98806.23
2018-09-12T03:21:52.493Z,98811.05
2018-09-12T03:24:24.440Z,98815.88
2018-09-12T03:26:56.052Z,98813.55
2018-09-12T03:29:27.053Z,98821.69
2018-09-12T03:31:58.774Z,98822.19
2018-09-12T03:34:30.834Z,98818.04
2018-09-12T03:37:03.006Z,98813.06
2018-09-12T03:39:34.794Z,98813.06
2018-09-12T03:42:06.437Z,98815.22
2018-09-12T03:44:38.229Z,98812.22
2018-09-12T03:47:09.758Z,98816.70
2018-09-12T03:49:41.490Z,98817.55
2018-09-12T03:52:13.213Z,98828.02
2018-09-12T03:54:44.757Z,98827.19
2018-09-12T03:57:16.256Z,98829.51
2018-09-12T03:59:48.024Z,98820.20
2018-09-12T04:02:19.698Z,98832.51
2018-09-12T04:05:54.220Z,98831.52
2018-09-12T04:08:25.697Z,98834.80
2018-09-12T04:10:57.494Z,98845.44
2018-09-12T04:13:29.263Z,98842.09
2018-09-12T04:16:00.745Z,98837.13
2018-09-12T04:18:32.449Z,98835.98
2018-09-12T04:21:04.026Z,98837.00
2018-09-12T04:23:35.908Z,98845.47
2018-09-12T04:26:07.660Z,98842.80
2018-09-12T04:28:39.298Z,98848.47
2018-09-12T04:31:10.915Z,98849.35
2018-09-12T04:33:42.593Z,98850.16
2018-09-12T04:36:14.610Z,98838.03
2018-09-12T04:38:46.442Z,98846.02
2018-09-12T04:41:18.476Z,98842.84
2018-09-12T04:43:50.226Z,98838.38
2018-09-12T04:46:22.060Z,98838.52
2018-09-12T04:48:53.697Z,98833.23
2018-09-12T04:51:26.189Z,98829.21
2018-09-12T04:53:57.625Z,98829.89
2018-09-12T04:56:29.335Z,98825.89
2018-09-12T04:59:01.009Z,98820.27
2018-09-12T05:01:33.063Z,98820.91
2018-09-12T05:04:04.633Z,98823.58
2018-09-12T05:06:36.432Z,98821.91
2018-09-12T05:09:11.158Z,98815.09
2018-09-12T05:11:43.018Z,98824.24
2018-09-12T05:14:14.982Z,98819.25
2018-09-12T05:16:46.985Z,98816.64
2018-09-12T05:19:18.474Z,98812.30
2018-09-12T05:21:50.170Z,98802.84
2018-09-12T05:24:21.807Z,98804.67
2018-09-12T05:26:53.363Z,98799.67
2018-09-12T05:29:25.707Z,98804.33
2018-09-12T05:31:58.172Z,98802.82
2018-09-12T05:34:30.030Z,98797.02
2018-09-12T05:37:01.751Z,98806.16
2018-09-12T05:39:33.353Z,98803.81
2018-09-12T05:42:05.277Z,98803.99
2018-09-12T05:44:37.882Z,98792.17
2018-09-12T05:47:09.419Z,98795.69
2018-09-12T05:49:40.987Z,98796.32
2018-09-12T05:52:12.633Z,98785.66
2018-09-12T05:54:44.317Z,98779.34
2018-09-12T05:57:16.014Z,98780.65
2018-09-12T05:59:47.549Z,98785.00
2018-09-12T06:02:19.126Z,98773.87
2018-09-12T06:04:50.769Z,98773.53
2018-09-12T06:07:22.614Z,98771.00
2018-09-12T06:09:54.515Z,98769.66
2018-09-12T06:12:26.193Z,98769.31
2018-09-12T06:14:57.871Z,98765.84
2018-09-12T06:17:29.499Z,98765.66
2018-09-12T06:20:01.114Z,98767.13
2018-09-12T06:22:32.928Z,98758.35
2018-09-12T06:25:04.545Z,98759.96
2018-09-12T06:27:36.210Z,98751.74
2018-09-12T06:30:08.617Z,98744.48
2018-09-12T06:32:40.379Z,98734.65
2018-09-12T06:35:12.258Z,98742.64
2018-09-12T06:37:43.921Z,98733.65
2018-09-12T06:40:15.644Z,98729.29
2018-09-12T06:42:47.407Z,98727.89
2018-09-12T06:45:20.324Z,98721.59
2018-09-12T06:47:52.580Z,98727.26
2018-09-12T06:50:24.568Z,98721.22
2018-09-12T06:52:56.109Z,98711.05
2018-09-12T06:55:28.243Z,98708.94
2018-09-12T06:57:59.821Z,98705.00
2018-09-12T07:00:31.825Z,98699.73
2018-09-12T07:03:03.289Z,98691.08
2018-09-12T07:05:35.024Z,98689.41
2018-09-12T07:08:06.639Z,98687.75
2018-09-12T07:10:38.400Z,98681.25
2018-09-12T07:13:10.220Z,98666.61
2018-09-12T07:15:41.815Z,98665.27
2018-09-12T07:18:13.683Z,98666.11
2018-09-12T07:20:45.503Z,98657.78
2018-09-12T07:23:17.208Z,98650.45
2018-09-12T07:25:48.826Z,98642.96
2018-09-12T07:28:20.696Z,98636.80
2018-09-12T07:30:53.188Z,98635.14
2018-09-12T07:33:25.039Z,98639.13
2018-09-12T07:35:56.645Z,98624.18
2018-09-12T07:38:28.401Z,98623.15
2018-09-12T07:41:00.021Z,98613.52
2018-09-12T07:43:31.858Z,98613.83
2018-09-12T07:46:04.951Z,98608.20
2018-09-12T07:48:36.912Z,98605.20
2018-09-12T07:51:08.741Z,98599.17
2018-09-12T07:53:40.560Z,98594.67
2018-09-12T07:56:12.148Z,98591.84
2018-09-12T07:58:44.465Z,98596.67
2018-09-12T08:01:16.330Z,98587.35
2018-09-12T08:03:48.260Z,98581.19
2018-09-12T08:06:20.088Z,98585.52
2018-09-12T08:08:51.789Z,98583.52
2018-09-12T08:11:23.584Z,98569.87
2018-09-12T08:13:55.461Z,98566.53
2018-09-12T08:16:27.127Z,98564.87
2018-09-12T08:18:58.947Z,98566.00
2018-09-12T08:21:30.604Z,98558.34
2018-09-12T08:24:01.877Z,98556.84
2018-09-12T08:26:33.583Z,98557.17
2018-09-12T08:29:05.309Z,98546.84
2018-09-12T08:31:37.246Z,98552.50
2018-09-12T08:34:08.954Z,98550.67
2018-09-12T08:36:41.026Z,98546.67
2018-09-12T08:39:12.747Z,98550.47
2018-09-12T08:41:44.655Z,98538.48
2018-09-12T08:44:16.557Z,98538.98
2018-09-12T08:46:49.435Z,98529.48
2018-09-12T08:49:21.057Z,98527.15
2018-09-12T08:51:52.675Z,98526.14
2018-09-12T08:54:24.625Z,98523.48
2018-09-12T08:56:56.290Z,98520.31
2018-09-12T08:59:28.136Z,98519.81
2018-09-12T09:01:59.800Z,98523.48
2018-09-12T09:04:31.495Z,98511.48
2018-09-12T09:07:03.310Z,98511.32
2018-09-12T09:09:35.024Z,98499.33
2018-09-12T09:12:06.688Z,98495.33
2018-09-12T09:14:38.487Z,98497.50
2018-09-12T09:17:10.210Z,98491.46
2018-09-12T09:19:42.017Z,98489.12
2018-09-12T09:22:13.677Z,98486.79
2018-09-12T09:24:45.833Z,98482.30
2018-09-12T09:27:17.440Z,98483.45
2018-09-12T09:29:49.189Z,98478.45
2018-09-12T09:32:21.741Z,98475.61
2018-09-12T09:34:53.662Z,98474.28
2018-09-12T09:37:25.481Z,98475.08
2018-09-12T09:39:57.980Z,98469.58
2018-09-12T09:42:29.498Z,98466.73
2018-09-12T09:45:01.240Z,98462.41
2018-09-12T09:47:34.358Z,98460.08
2018-09-12T09:50:06.339Z,98460.41
2018-09-12T09:52:38.118Z,98459.08
2018-09-12T09:55:09.998Z,98457.36
2018-09-12T09:57:41.678Z,98456.36
2018-09-12T10:00:18.113Z,98463.34
2018-09-12T10:02:54.292Z,98461.34
2018-09-12T10:06:30.368Z,98459.17
2018-09-12T10:09:07.042Z,98466.33
2018-09-12T10:11:39.011Z,98458.86
2018-09-12T10:14:10.736Z,98456.48
2018-09-12T10:16:47.111Z,98457.66
2018-09-12T10:19:18.857Z,98453.30
2018-09-12T10:21:50.706Z,98444.30
2018-09-12T10:24:22.546Z,98449.30
2018-09-12T10:26:54.422Z,98448.59
2018-09-12T10:29:26.045Z,98444.30
2018-09-12T10:31:57.823Z,98444.42
2018-09-12T10:34:29.586Z,98446.91
2018-09-12T10:37:01.439Z,98443.74
2018-09-12T10:39:33.054Z,98442.64
2018-09-12T10:42:05.222Z,98439.82
2018-09-12T10:44:37.032Z,98446.26
2018-09-12T10:47:08.896Z,98441.91
2018-09-12T10:49:40.724Z,98432.08
2018-09-12T10:52:13.893Z,98413.23
2018-09-12T10:54:45.698Z,98402.57
2018-09-12T10:57:17.486Z,98405.23
2018-09-12T10:59:49.206Z,98405.32
2018-09-12T11:02:20.981Z,98412.76
2018-09-12T11:04:52.718Z,98420.91
2018-09-12T11:07:24.361Z,98420.23
2018-09-12T11:09:56.164Z,98423.19
2018-09-12T11:12:28.185Z,98418.69
2018-09-12T11:14:59.899Z,98426.06
2018-09-12T11:17:31.767Z,98429.85
2018-09-12T11:20:03.434Z,98428.52
2018-09-12T11:22:35.547Z,98418.36
2018-09-12T11:25:07.238Z,98411.19
2018-09-12T11:27:39.622Z,98405.86
2018-09-12T11:30:11.387Z,98413.56
2018-09-12T11:32:43.223Z,98421.36
2018-09-12T11:35:14.874Z,98419.02
2018-09-12T11:37:46.712Z,98412.34
2018-09-12T11:40:18.494Z,98411.34
2018-09-12T11:42:50.323Z,98414.52
2018-09-12T11:45:22.044Z,98411.34
2018-09-12T11:47:53.909Z,98413.18
2018-09-12T11:50:25.589Z,98416.17
2018-09-12T11:52:57.460Z,98409.50
2018-09-12T11:55:29.341Z,98411.84
2018-09-12T11:58:01.102Z,98409.18
2018-09-12T12:00:32.912Z,98408.34
2018-09-12T12:03:04.625Z,98405.14
2018-09-12T12:05:36.322Z,98418.47
2018-09-12T12:08:07.860Z,98426.92
2018-09-12T12:10:39.617Z,98427.75
2018-09-12T12:13:11.257Z,98430.59
2018-09-12T12:15:42.867Z,98425.91
2018-09-12T12:18:14.487Z,98421.23
2018-09-12T12:20:46.101Z,98426.06
2018-09-12T12:23:18.241Z,98431.19
2018-09-12T12:25:49.969Z,98436.22
2018-09-12T12:28:22.408Z,98435.19
2018-09-12T12:30:53.804Z,98437.02
2018-09-12T12:33:25.576Z,98418.24
2018-09-12T12:35:59.985Z,98428.23
2018-09-12T12:38:31.745Z,98429.85
2018-09-12T12:41:03.372Z,98415.19
2018-09-12T12:43:35.316Z,98432.22
2018-09-12T12:46:07.058Z,98429.23
2018-09-12T12:48:39.200Z,98435.89
2018-09-12T12:51:10.769Z,98441.91
2018-09-12T12:53:42.623Z,98446.41
2018-09-12T12:56:14.234Z,98448.75
2018-09-12T12:58:45.765Z,98458.25
2018-09-12T13:01:17.506Z,98466.25
2018-09-12T13:03:49.055Z,98471.58
2018-09-12T13:06:20.753Z,98486.58
2018-09-12T13:08:52.600Z,98478.41
2018-09-12T13:11:24.295Z,98479.91
2018-09-12T13:13:55.994Z,98482.58
2018-09-12T13:16:27.764Z,98484.91
2018-09-12T13:18:59.685Z,98484.91
2018-09-12T13:21:31.513Z,98478.25
2018-09-12T13:24:03.149Z,98480.41
2018-09-12T13:26:34.690Z,98472.59
2018-09-12T13:29:07.129Z,98481.92
2018-09-12T13:31:38.677Z,98484.96
2018-09-12T13:34:10.765Z,98487.62
2018-09-12T13:36:42.423Z,98486.63
2018-09-12T13:39:16.701Z,98487.13
2018-09-12T13:41:48.463Z,98494.13
2018-09-12T13:44:20.375Z,98487.13
2018-09-12T13:46:52.259Z,98489.79
2018-09-12T13:49:24.278Z,98485.80
2018-09-12T13:51:57.313Z,98487.95
2018-09-12T13:54:29.147Z,98488.96
2018-09-12T13:57:00.748Z,98495.62
2018-09-12T13:59:32.568Z,98495.12
2018-09-12T14:02:04.360Z,98499.30
2018-09-12T14:04:36.476Z,98499.80
2018-09-12T14:07:08.199Z,98498.97
2018-09-12T14:09:40.133Z,98507.80
2018-09-12T14:12:11.534Z,98504.30
2018-09-12T14:14:43.431Z,98510.63
2018-09-12T14:17:14.715Z,98509.30
2018-09-12T14:19:45.994Z,98518.12
2018-09-12T14:22:17.308Z,98519.63
2018-09-12T14:24:48.670Z,98527.63
2018-09-12T14:27:20.435Z,98534.62
2018-09-12T14:29:52.278Z,98542.29
2018-09-12T14:32:23.982Z,98542.63
2018-09-12T14:34:55.825Z,98546.63
2018-09-12T14:37:27.404Z,98541.80
2018-09-12T14:39:58.935Z,98556.78
2018-09-12T14:42:30.739Z,98560.45
2018-09-12T14:45:02.684Z,98564.95
2018-09-12T14:47:34.463Z,98566.61
2018-09-12T14:50:06.617Z,98568.95
2018-09-12T14:52:38.248Z,98569.61
2018-09-12T14:55:10.018Z,98570.11
2018-09-12T14:57:41.747Z,98578.61
2018-09-12T15:00:17.788Z,98571.94
2018-09-12T15:02:49.543Z,98566.94
2018-09-12T15:05:21.012Z,98565.61
2018-09-12T15:07:52.339Z,98557.78
2018-09-12T15:10:23.799Z,98559.62
2018-09-12T15:12:55.109Z,98562.11
2018-09-12T15:15:27.116Z,98564.27
2018-09-12T15:17:58.793Z,98566.94
2018-09-12T15:20:30.538Z,98567.27
2018-09-12T15:23:02.161Z,98571.94
2018-09-12T15:25:34.028Z,98571.44
2018-09-12T15:28:05.679Z,98571.44
2018-09-12T15:30:38.639Z,98586.94
2018-09-12T15:33:10.414Z,98576.95
2018-09-12T15:35:42.276Z,98573.78
2018-09-12T15:38:13.952Z,98568.27
2018-09-12T15:40:45.804Z,98570.94
2018-09-12T15:43:17.629Z,98575.27
2018-09-12T15:45:49.633Z,98579.59
2018-09-12T15:48:21.309Z,98579.77
2018-09-12T15:50:52.882Z,98570.27
2018-09-12T15:53:24.475Z,98572.94
2018-09-12T15:55:56.374Z,98569.94
2018-09-12T15:58:28.379Z,98573.61
2018-09-12T16:01:00.131Z,98571.60
2018-09-12T16:03:31.825Z,98568.77
2018-09-12T16:06:03.703Z,98573.59
2018-09-12T16:08:35.286Z,98571.60
2018-09-12T16:11:06.917Z,98570.94
2018-09-12T16:13:38.423Z,98564.44
2018-09-12T16:16:10.547Z,98567.93
2018-09-12T16:18:42.343Z,98574.94
2018-09-12T16:21:14.350Z,98579.09
2018-09-12T16:23:46.081Z,98584.76
2018-09-12T16:26:17.896Z,98583.92
2018-09-12T16:28:49.583Z,98582.92
2018-09-12T16:31:22.512Z,98577.59
2018-09-12T16:33:54.109Z,98580.25
2018-09-12T16:36:26.248Z,98578.59
2018-09-12T16:38:58.822Z,98580.88
2018-09-12T16:41:30.358Z,98577.39
2018-09-12T16:44:02.111Z,98573.89
2018-09-12T16:46:33.858Z,98570.42
2018-09-12T16:49:05.548Z,98566.42
2018-09-12T16:51:37.381Z,98557.89
2018-09-12T16:54:09.715Z,98560.89
2018-09-12T16:56:41.317Z,98561.39
2018-09-12T16:59:16.093Z,98553.27
2018-09-12T17:01:48.074Z,98549.19
2018-09-12T17:04:19.524Z,98538.02
2018-09-12T17:06:51.398Z,98539.64
2018-09-12T17:09:22.777Z,98532.96
2018-09-12T17:11:54.493Z,98529.67
2018-09-12T17:14:26.126Z,98524.67
2018-09-12T17:16:58.014Z,98535.63
2018-09-12T17:19:29.691Z,98530.63
2018-09-12T17:22:01.350Z,98531.45
2018-09-12T17:24:33.459Z,98525.62
2018-09-12T17:27:05.178Z,98521.78
2018-09-12T17:29:37.163Z,98526.45
2018-09-12T17:32:09.356Z,98528.95
2018-09-12T17:34:41.013Z,98528.45
2018-09-12T17:37:12.632Z,98530.44
2018-09-12T17:39:44.330Z,98519.12
2018-09-12T17:42:16.016Z,98525.61
2018-09-12T17:44:47.675Z,98527.44
2018-09-12T17:47:19.533Z,98527.61
2018-09-12T17:49:51.392Z,98524.45
2018-09-12T17:52:23.220Z,98531.61
2018-09-12T17:54:55.139Z,98529.28
2018-09-12T17:57:26.701Z,98527.28
2018-09-12T17:59:58.353Z,98529.10
2018-09-12T18:02:30.629Z,98531.23
2018-09-12T18:05:02.310Z,98524.95
2018-09-12T18:07:34.256Z,98530.61
2018-09-12T18:10:05.958Z,98533.90
2018-09-12T18:12:37.431Z,98532.45
2018-09-12T18:15:09.113Z,98527.61
2018-09-12T18:17:41.101Z,98524.95
2018-09-12T18:20:12.847Z,98531.61
2018-09-12T18:22:44.701Z,98528.45
2018-09-12T18:25:16.267Z,98526.61
2018-09-12T18:27:48.080Z,98521.78
2018-09-12T18:30:20.474Z,98529.28
2018-09-12T18:32:51.924Z,98530.61
2018-09-12T18:35:23.539Z,98532.27
2018-09-12T18:37:55.085Z,98530.94
2018-09-12T18:40:26.619Z,98537.27
2018-09-12T18:42:58.332Z,98531.95
2018-09-12T18:45:29.701Z,98529.31
2018-09-12T18:48:01.696Z,98534.62
2018-09-12T18:50:33.219Z,98535.33
2018-09-12T18:53:05.052Z,98528.29
2018-09-12T18:55:36.642Z,98527.28
2018-09-12T18:58:08.520Z,98529.63
2018-09-12T19:00:40.155Z,98538.95
2018-09-12T19:03:12.007Z,98533.12
2018-09-12T19:05:43.738Z,98526.95
2018-09-12T19:08:15.451Z,98531.95
2018-09-12T19:10:47.283Z,98532.29
2018-09-12T19:13:19.377Z,98535.28
2018-09-12T19:15:51.422Z,98529.80
2018-09-12T19:18:23.569Z,98525.62
2018-09-12T19:20:55.573Z,98526.62
2018-09-12T19:23:27.320Z,98524.80
2018-09-12T19:25:58.788Z,98519.97
2018-09-12T19:28:30.469Z,98515.34
2018-09-12T19:31:02.459Z,98507.02
2018-09-12T19:33:34.212Z,98504.17
2018-09-12T19:36:05.918Z,98505.68
2018-09-12T19:38:37.746Z,98503.02
2018-09-12T19:41:09.374Z,98504.84
2018-09-12T19:43:41.217Z,98495.34
2018-09-12T19:46:12.895Z,98495.97
2018-09-12T19:48:44.743Z,98491.34
2018-09-12T19:51:17.105Z,98485.19
2018-09-12T19:53:48.835Z,98484.48
2018-09-12T19:56:20.826Z,98483.98
2018-09-12T19:58:52.738Z,98488.69
2018-09-12T20:01:25.559Z,98480.69
2018-09-12T20:03:57.330Z,98481.81
2018-09-12T20:06:29.011Z,98483.65
2018-09-12T20:09:00.905Z,98473.70
2018-09-12T20:11:32.399Z,98469.34
2018-09-12T20:14:04.229Z,98468.36
2018-09-12T20:16:35.870Z,98457.34
2018-09-12T20:19:07.761Z,98465.70
2018-09-12T20:21:39.278Z,98461.70
2018-09-12T20:24:10.951Z,98465.34
2018-09-12T20:26:42.982Z,98463.17
2018-09-12T20:29:14.845Z,98463.68
2018-09-12T20:31:46.970Z,98465.34
2018-09-12T20:34:18.685Z,98463.85
2018-09-12T20:36:50.315Z,98470.02
2018-09-12T20:39:22.123Z,98468.35
2018-09-12T20:41:54.226Z,98466.02
2018-09-12T20:44:27.063Z,98466.02
2018-09-12T20:46:58.760Z,98464.35
2018-09-12T20:49:30.787Z,98461.69
2018-09-12T20:52:02.802Z,98463.02
2018-09-12T20:54:34.529Z,98467.52
2018-09-12T20:57:06.235Z,98465.36
2018-09-12T20:59:38.052Z,98463.73
2018-09-12T21:02:09.678Z,98458.39
2018-09-12T21:04:41.389Z,98457.06
2018-09-12T21:07:12.936Z,98457.36
2018-09-12T21:09:44.406Z,98448.23
2018-09-12T21:12:16.177Z,98444.91
2018-09-12T21:14:47.798Z,98443.08
2018-09-12T21:17:19.441Z,98443.08
2018-09-12T21:19:51.307Z,98444.74
2018-09-12T21:22:22.926Z,98437.42
2018-09-12T21:24:54.632Z,98439.59
2018-09-12T21:27:26.494Z,98437.92
2018-09-12T21:29:58.186Z,98433.42
2018-09-12T21:32:30.714Z,98438.75
2018-09-12T21:35:02.447Z,98441.92
2018-09-12T21:37:34.134Z,98435.77
2018-09-12T21:40:06.296Z,98437.09
2018-09-12T21:42:37.995Z,98436.77
2018-09-12T21:45:09.697Z,98443.93
2018-09-12T21:47:41.325Z,98440.44
2018-09-12T21:50:13.237Z,98434.31
2018-09-12T21:52:44.778Z,98437.47
2018-09-12T21:55:16.508Z,98432.65
2018-09-12T21:57:48.200Z,98433.15
2018-09-12T22:00:20.019Z,98438.48
2018-09-12T22:02:51.653Z,98439.81
2018-09-12T22:05:23.125Z,98447.48
2018-09-12T22:07:54.811Z,98448.53
2018-09-12T22:10:26.513Z,98445.16
2018-09-12T22:12:58.106Z,98446.81
2018-09-12T22:15:30.256Z,98448.16
2018-09-12T22:18:01.859Z,98460.14
2018-09-12T22:20:33.646Z,98448.16
2018-09-12T22:23:05.330Z,98448.16
2018-09-12T22:25:37.141Z,98448.66
2018-09-12T22:28:08.937Z,98446.66
2018-09-12T22:30:40.698Z,98449.86
2018-09-12T22:33:13.436Z,98458.16
2018-09-12T22:35:45.218Z,98453.33
2018-09-12T22:38:16.847Z,98457.21
2018-09-12T22:40:48.395Z,98459.05
2018-09-12T22:43:20.059Z,98463.53
2018-09-12T22:45:51.605Z,98461.52
2018-09-12T22:48:23.319Z,98458.53
2018-09-12T22:50:55.577Z,98457.70
2018-09-12T22:53:27.038Z,98466.85
2018-09-12T22:55:59.261Z,98463.70
2018-09-12T22:58:31.053Z,98461.54
2018-09-12T23:01:02.820Z,98464.20
2018-09-12T23:03:34.807Z,98467.20
2018-09-12T23:06:06.605Z,98467.58
2018-09-12T23:08:38.160Z,98476.85
2018-09-12T23:11:09.636Z,98480.69
2018-09-12T23:13:41.403Z,98484.06
2018-09-12T23:16:12.884Z,98473.70
2018-09-12T23:18:44.608Z,98488.36
2018-09-12T23:21:16.421Z,98483.03
2018-09-12T23:23:48.197Z,98488.89
2018-09-12T23:26:19.941Z,98489.89
2018-09-12T23:28:51.596Z,98500.22
2018-09-12T23:31:23.262Z,98496.55
2018-09-12T23:33:54.804Z,98490.89
2018-09-12T23:36:26.599Z,98485.06
2018-09-12T23:38:58.042Z,98488.56
2018-09-12T23:41:29.819Z,98489.56
2018-09-12T23:44:01.481Z,98492.23
2018-09-12T23:46:32.947Z,98487.90
2018-09-12T23:49:04.615Z,98490.56
2018-09-12T23:51:36.271Z,98496.39
2018-09-12T23:54:08.217Z,98497.73
2018-09-12T23:56:40.677Z,98499.56
2018-09-12T23:59:12.018Z,98508.55
